sensor_id;sensor_type;location;lat;lon;timestamp;temperature;humidity
17452;DHT22;8843;48.838;9.324;2023-08-21T00:01:46;26.50;80.40
17452;DHT22;8843;48.838;9.324;2023-08-21T00:04:13;26.50;80.90
17452;DHT22;8843;48.838;9.324;2023-08-21T00:06:40;26.50;81.00
17452;DHT22;8843;48.838;9.324;2023-08-21T00:09:07;26.40;80.60
17452;DHT22;8843;48.838;9.324;2023-08-21T00:11:35;26.40;80.80
17452;DHT22;8843;48.838;9.324;2023-08-21T00:14:02;26.40;81.60
17452;DHT22;8843;48.838;9.324;2023-08-21T00:16:29;26.40;80.90
17452;DHT22;8843;48.838;9.324;2023-08-21T00:18:56;26.40;80.90
17452;DHT22;8843;48.838;9.324;2023-08-21T00:21:22;26.40;80.70
17452;DHT22;8843;48.838;9.324;2023-08-21T00:23:49;26.40;80.60
17452;DHT22;8843;48.838;9.324;2023-08-21T00:26:16;26.40;81.00
17452;DHT22;8843;48.838;9.324;2023-08-21T00:28:44;26.40;81.00
17452;DHT22;8843;48.838;9.324;2023-08-21T00:31:11;26.40;81.10
17452;DHT22;8843;48.838;9.324;2023-08-21T00:33:38;26.40;81.00
17452;DHT22;8843;48.838;9.324;2023-08-21T00:36:05;26.40;81.10
17452;DHT22;8843;48.838;9.324;2023-08-21T00:38:32;26.30;81.10
17452;DHT22;8843;48.838;9.324;2023-08-21T00:40:59;26.30;81.20
17452;DHT22;8843;48.838;9.324;2023-08-21T00:43:26;26.30;81.00
17452;DHT22;8843;48.838;9.324;2023-08-21T00:45:54;26.30;81.90
17452;DHT22;8843;48.838;9.324;2023-08-21T00:48:21;26.30;80.70
17452;DHT22;8843;48.838;9.324;2023-08-21T00:50:48;26.30;81.10
17452;DHT22;8843;48.838;9.324;2023-08-21T00:53:16;26.30;80.90
17452;DHT22;8843;48.838;9.324;2023-08-21T00:55:43;26.30;81.00
17452;DHT22;8843;48.838;9.324;2023-08-21T00:58:10;26.30;81.30
17452;DHT22;8843;48.838;9.324;2023-08-21T01:00:38;26.30;81.20
17452;DHT22;8843;48.838;9.324;2023-08-21T01:03:07;26.30;81.10
17452;DHT22;8843;48.838;9.324;2023-08-21T01:05:35;26.30;81.30
17452;DHT22;8843;48.838;9.324;2023-08-21T01:08:03;26.30;81.10
17452;DHT22;8843;48.838;9.324;2023-08-21T01:10:48;26.20;80.70
17452;DHT22;8843;48.838;9.324;2023-08-21T01:13:26;26.20;80.90
17452;DHT22;8843;48.838;9.324;2023-08-21T01:15:56;26.20;81.40
17452;DHT22;8843;48.838;9.324;2023-08-21T01:18:26;26.20;81.20
17452;DHT22;8843;48.838;9.324;2023-08-21T01:20:54;26.20;80.90
17452;DHT22;8843;48.838;9.324;2023-08-21T01:23:32;26.20;80.70
17452;DHT22;8843;48.838;9.324;2023-08-21T01:25:59;26.20;80.60
17452;DHT22;8843;48.838;9.324;2023-08-21T01:28:26;26.20;80.70
17452;DHT22;8843;48.838;9.324;2023-08-21T01:30:58;26.20;81.30
17452;DHT22;8843;48.838;9.324;2023-08-21T01:33:26;26.20;80.50
17452;DHT22;8843;48.838;9.324;2023-08-21T01:35:57;26.20;80.50
17452;DHT22;8843;48.838;9.324;2023-08-21T01:38:25;26.20;80.50
17452;DHT22;8843;48.838;9.324;2023-08-21T01:40:53;26.20;80.70
17452;DHT22;8843;48.838;9.324;2023-08-21T01:43:20;26.20;80.60
17452;DHT22;8843;48.838;9.324;2023-08-21T01:45:47;26.20;80.60
17452;DHT22;8843;48.838;9.324;2023-08-21T01:48:14;26.20;80.70
17452;DHT22;8843;48.838;9.324;2023-08-21T01:50:41;26.10;80.60
17452;DHT22;8843;48.838;9.324;2023-08-21T01:53:07;26.10;80.60
17452;DHT22;8843;48.838;9.324;2023-08-21T01:55:34;26.10;80.70
17452;DHT22;8843;48.838;9.324;2023-08-21T01:58:03;26.10;80.40
17452;DHT22;8843;48.838;9.324;2023-08-21T02:00:30;26.10;80.60
17452;DHT22;8843;48.838;9.324;2023-08-21T02:02:56;26.10;80.50
17452;DHT22;8843;48.838;9.324;2023-08-21T02:05:23;26.10;80.90
17452;DHT22;8843;48.838;9.324;2023-08-21T02:07:50;26.10;81.10
17452;DHT22;8843;48.838;9.324;2023-08-21T02:10:17;26.10;80.60
17452;DHT22;8843;48.838;9.324;2023-08-21T02:12:44;26.10;80.60
17452;DHT22;8843;48.838;9.324;2023-08-21T02:15:12;26.10;80.50
17452;DHT22;8843;48.838;9.324;2023-08-21T02:17:40;26.10;80.70
17452;DHT22;8843;48.838;9.324;2023-08-21T02:20:09;26.10;80.70
17452;DHT22;8843;48.838;9.324;2023-08-21T02:22:36;26.10;80.60
17452;DHT22;8843;48.838;9.324;2023-08-21T02:25:03;26.10;80.60
17452;DHT22;8843;48.838;9.324;2023-08-21T02:27:30;26.00;80.60
17452;DHT22;8843;48.838;9.324;2023-08-21T02:29:57;26.00;80.60
17452;DHT22;8843;48.838;9.324;2023-08-21T02:32:25;26.00;81.40
17452;DHT22;8843;48.838;9.324;2023-08-21T02:34:52;26.00;80.50
17452;DHT22;8843;48.838;9.324;2023-08-21T02:37:19;26.00;80.50
17452;DHT22;8843;48.838;9.324;2023-08-21T02:39:46;26.00;80.60
17452;DHT22;8843;48.838;9.324;2023-08-21T02:42:13;26.00;80.70
17452;DHT22;8843;48.838;9.324;2023-08-21T02:44:40;26.00;80.40
17452;DHT22;8843;48.838;9.324;2023-08-21T02:47:07;26.00;80.40
17452;DHT22;8843;48.838;9.324;2023-08-21T02:49:35;26.00;80.50
17452;DHT22;8843;48.838;9.324;2023-08-21T02:52:02;26.00;80.50
17452;DHT22;8843;48.838;9.324;2023-08-21T02:54:29;26.00;80.50
17452;DHT22;8843;48.838;9.324;2023-08-21T02:56:56;26.00;80.50
17452;DHT22;8843;48.838;9.324;2023-08-21T02:59:23;26.00;80.50
17452;DHT22;8843;48.838;9.324;2023-08-21T03:01:50;26.00;80.50
17452;DHT22;8843;48.838;9.324;2023-08-21T03:04:16;26.00;80.50
17452;DHT22;8843;48.838;9.324;2023-08-21T03:06:45;26.00;80.50
17452;DHT22;8843;48.838;9.324;2023-08-21T03:09:11;25.90;80.50
17452;DHT22;8843;48.838;9.324;2023-08-21T03:11:38;25.90;80.50
17452;DHT22;8843;48.838;9.324;2023-08-21T03:14:05;25.90;80.60
17452;DHT22;8843;48.838;9.324;2023-08-21T03:16:32;25.90;80.60
17452;DHT22;8843;48.838;9.324;2023-08-21T03:19:00;25.90;80.50
17452;DHT22;8843;48.838;9.324;2023-08-21T03:21:27;25.90;80.50
17452;DHT22;8843;48.838;9.324;2023-08-21T03:23:57;25.90;80.50
17452;DHT22;8843;48.838;9.324;2023-08-21T03:26:25;25.90;80.60
17452;DHT22;8843;48.838;9.324;2023-08-21T03:28:52;25.90;80.50
17452;DHT22;8843;48.838;9.324;2023-08-21T03:31:19;25.90;80.50
17452;DHT22;8843;48.838;9.324;2023-08-21T03:33:46;25.90;80.50
17452;DHT22;8843;48.838;9.324;2023-08-21T03:36:13;25.90;80.60
17452;DHT22;8843;48.838;9.324;2023-08-21T03:38:40;25.90;80.70
17452;DHT22;8843;48.838;9.324;2023-08-21T03:41:08;25.90;80.60
17452;DHT22;8843;48.838;9.324;2023-08-21T03:43:35;25.90;80.60
17452;DHT22;8843;48.838;9.324;2023-08-21T03:46:02;25.90;80.50
17452;DHT22;8843;48.838;9.324;2023-08-21T03:48:29;25.90;80.70
17452;DHT22;8843;48.838;9.324;2023-08-21T03:50:56;25.90;80.70
17452;DHT22;8843;48.838;9.324;2023-08-21T03:53:22;25.90;80.60
17452;DHT22;8843;48.838;9.324;2023-08-21T03:55:50;25.80;80.60
17452;DHT22;8843;48.838;9.324;2023-08-21T03:58:18;25.80;80.60
17452;DHT22;8843;48.838;9.324;2023-08-21T04:00:45;25.80;80.60
17452;DHT22;8843;48.838;9.324;2023-08-21T04:03:12;25.80;80.70
17452;DHT22;8843;48.838;9.324;2023-08-21T04:05:39;25.80;80.70
17452;DHT22;8843;48.838;9.324;2023-08-21T04:08:06;25.80;81.50
17452;DHT22;8843;48.838;9.324;2023-08-21T04:10:33;25.80;80.70
17452;DHT22;8843;48.838;9.324;2023-08-21T04:13:00;25.80;80.70
17452;DHT22;8843;48.838;9.324;2023-08-21T04:15:28;25.80;80.80
17452;DHT22;8843;48.838;9.324;2023-08-21T04:17:55;25.80;81.50
17452;DHT22;8843;48.838;9.324;2023-08-21T04:20:22;25.80;80.80
17452;DHT22;8843;48.838;9.324;2023-08-21T04:22:49;25.80;80.80
17452;DHT22;8843;48.838;9.324;2023-08-21T04:25:16;25.80;80.80
17452;DHT22;8843;48.838;9.324;2023-08-21T04:27:43;25.80;80.80
17452;DHT22;8843;48.838;9.324;2023-08-21T04:30:11;25.80;80.80
17452;DHT22;8843;48.838;9.324;2023-08-21T04:32:39;25.80;80.80
17452;DHT22;8843;48.838;9.324;2023-08-21T04:35:06;25.70;80.70
17452;DHT22;8843;48.838;9.324;2023-08-21T04:37:34;25.70;80.80
17452;DHT22;8843;48.838;9.324;2023-08-21T04:40:01;25.70;80.80
17452;DHT22;8843;48.838;9.324;2023-08-21T04:42:28;25.70;80.80
17452;DHT22;8843;48.838;9.324;2023-08-21T04:44:55;25.70;80.80
17452;DHT22;8843;48.838;9.324;2023-08-21T04:47:23;25.70;80.80
17452;DHT22;8843;48.838;9.324;2023-08-21T04:49:53;25.70;80.90
17452;DHT22;8843;48.838;9.324;2023-08-21T04:52:21;25.70;80.90
17452;DHT22;8843;48.838;9.324;2023-08-21T04:54:48;25.70;80.90
17452;DHT22;8843;48.838;9.324;2023-08-21T04:57:16;25.70;80.90
17452;DHT22;8843;48.838;9.324;2023-08-21T04:59:43;25.70;80.90
17452;DHT22;8843;48.838;9.324;2023-08-21T05:02:10;25.70;80.90
17452;DHT22;8843;48.838;9.324;2023-08-21T05:04:37;25.70;81.00
17452;DHT22;8843;48.838;9.324;2023-08-21T05:07:06;25.70;81.00
17452;DHT22;8843;48.838;9.324;2023-08-21T05:09:33;25.60;81.00
17452;DHT22;8843;48.838;9.324;2023-08-21T05:12:00;25.70;81.00
17452;DHT22;8843;48.838;9.324;2023-08-21T05:14:26;25.70;81.00
17452;DHT22;8843;48.838;9.324;2023-08-21T05:16:53;25.70;81.90
17452;DHT22;8843;48.838;9.324;2023-08-21T05:19:20;25.60;81.00
17452;DHT22;8843;48.838;9.324;2023-08-21T05:21:47;25.60;81.80
17452;DHT22;8843;48.838;9.324;2023-08-21T05:24:15;25.60;81.00
17452;DHT22;8843;48.838;9.324;2023-08-21T05:26:42;25.60;81.00
17452;DHT22;8843;48.838;9.324;2023-08-21T05:29:09;25.60;81.10
17452;DHT22;8843;48.838;9.324;2023-08-21T05:31:36;25.60;81.10
17452;DHT22;8843;48.838;9.324;2023-08-21T05:34:03;25.60;81.10
17452;DHT22;8843;48.838;9.324;2023-08-21T05:36:30;25.60;81.20
17452;DHT22;8843;48.838;9.324;2023-08-21T05:38:57;25.60;81.20
17452;DHT22;8843;48.838;9.324;2023-08-21T05:41:25;25.60;81.20
17452;DHT22;8843;48.838;9.324;2023-08-21T05:43:52;25.60;81.20
17452;DHT22;8843;48.838;9.324;2023-08-21T05:46:19;25.60;81.20
17452;DHT22;8843;48.838;9.324;2023-08-21T05:48:46;25.60;81.20
17452;DHT22;8843;48.838;9.324;2023-08-21T05:51:12;25.60;81.20
17452;DHT22;8843;48.838;9.324;2023-08-21T05:53:40;25.60;81.20
17452;DHT22;8843;48.838;9.324;2023-08-21T05:56:06;25.60;81.30
17452;DHT22;8843;48.838;9.324;2023-08-21T05:58:35;25.60;81.20
17452;DHT22;8843;48.838;9.324;2023-08-21T06:01:01;25.60;81.30
17452;DHT22;8843;48.838;9.324;2023-08-21T06:03:28;25.60;81.30
17452;DHT22;8843;48.838;9.324;2023-08-21T06:05:55;25.60;82.10
17452;DHT22;8843;48.838;9.324;2023-08-21T06:08:22;25.60;81.40
17452;DHT22;8843;48.838;9.324;2023-08-21T06:10:51;25.60;81.40
17452;DHT22;8843;48.838;9.324;2023-08-21T06:13:18;25.60;81.50
17452;DHT22;8843;48.838;9.324;2023-08-21T06:15:46;25.50;82.10
17452;DHT22;8843;48.838;9.324;2023-08-21T06:18:13;25.50;81.40
17452;DHT22;8843;48.838;9.324;2023-08-21T06:20:42;25.50;82.40
17452;DHT22;8843;48.838;9.324;2023-08-21T06:23:09;25.50;81.40
17452;DHT22;8843;48.838;9.324;2023-08-21T06:25:36;25.60;81.50
17452;DHT22;8843;48.838;9.324;2023-08-21T06:28:03;25.50;81.40
17452;DHT22;8843;48.838;9.324;2023-08-21T06:30:30;25.50;81.40
17452;DHT22;8843;48.838;9.324;2023-08-21T06:32:59;25.60;81.50
17452;DHT22;8843;48.838;9.324;2023-08-21T06:35:25;25.60;81.70
17452;DHT22;8843;48.838;9.324;2023-08-21T06:37:52;25.50;81.60
17452;DHT22;8843;48.838;9.324;2023-08-21T06:40:20;25.50;81.50
17452;DHT22;8843;48.838;9.324;2023-08-21T06:42:47;25.50;81.60
17452;DHT22;8843;48.838;9.324;2023-08-21T06:45:16;25.50;81.50
17452;DHT22;8843;48.838;9.324;2023-08-21T06:47:43;25.50;82.40
17452;DHT22;8843;48.838;9.324;2023-08-21T06:50:11;25.50;82.00
17452;DHT22;8843;48.838;9.324;2023-08-21T06:52:38;25.50;82.40
17452;DHT22;8843;48.838;9.324;2023-08-21T06:55:06;25.50;83.20
17452;DHT22;8843;48.838;9.324;2023-08-21T06:57:33;25.50;83.30
17452;DHT22;8843;48.838;9.324;2023-08-21T07:00:00;25.50;83.60
17452;DHT22;8843;48.838;9.324;2023-08-21T07:02:27;25.50;82.30
17452;DHT22;8843;48.838;9.324;2023-08-21T07:04:54;25.50;83.20
17452;DHT22;8843;48.838;9.324;2023-08-21T07:07:22;25.50;83.20
17452;DHT22;8843;48.838;9.324;2023-08-21T07:09:50;25.50;82.50
17452;DHT22;8843;48.838;9.324;2023-08-21T07:12:17;25.50;82.40
17452;DHT22;8843;48.838;9.324;2023-08-21T07:14:44;25.50;82.30
17452;DHT22;8843;48.838;9.324;2023-08-21T07:17:10;25.50;82.30
17452;DHT22;8843;48.838;9.324;2023-08-21T07:19:37;25.50;82.40
17452;DHT22;8843;48.838;9.324;2023-08-21T07:22:04;25.50;84.60
17452;DHT22;8843;48.838;9.324;2023-08-21T07:24:32;25.50;84.10
17452;DHT22;8843;48.838;9.324;2023-08-21T07:26:59;25.60;85.60
17452;DHT22;8843;48.838;9.324;2023-08-21T07:29:26;25.60;85.80
17452;DHT22;8843;48.838;9.324;2023-08-21T07:31:53;25.50;86.20
17452;DHT22;8843;48.838;9.324;2023-08-21T07:34:20;25.60;86.40
17452;DHT22;8843;48.838;9.324;2023-08-21T07:36:46;25.60;86.50
17452;DHT22;8843;48.838;9.324;2023-08-21T07:39:13;25.60;86.70
17452;DHT22;8843;48.838;9.324;2023-08-21T07:41:41;25.60;87.00
17452;DHT22;8843;48.838;9.324;2023-08-21T07:44:08;25.70;87.20
17452;DHT22;8843;48.838;9.324;2023-08-21T07:46:35;25.60;85.70
17452;DHT22;8843;48.838;9.324;2023-08-21T07:49:02;25.60;85.60
17452;DHT22;8843;48.838;9.324;2023-08-21T07:51:29;25.60;85.30
17452;DHT22;8843;48.838;9.324;2023-08-21T07:53:56;25.70;85.90
17452;DHT22;8843;48.838;9.324;2023-08-21T07:56:22;25.70;86.90
17452;DHT22;8843;48.838;9.324;2023-08-21T07:58:51;25.70;86.60
17452;DHT22;8843;48.838;9.324;2023-08-21T08:01:17;25.70;86.20
17452;DHT22;8843;48.838;9.324;2023-08-21T08:03:46;25.70;86.50
17452;DHT22;8843;48.838;9.324;2023-08-21T08:06:13;25.80;86.50
17452;DHT22;8843;48.838;9.324;2023-08-21T08:08:40;25.90;87.30
17452;DHT22;8843;48.838;9.324;2023-08-21T08:11:07;25.90;86.70
17452;DHT22;8843;48.838;9.324;2023-08-21T08:13:34;25.90;86.60
17452;DHT22;8843;48.838;9.324;2023-08-21T08:16:02;25.90;86.60
17452;DHT22;8843;48.838;9.324;2023-08-21T08:18:29;25.90;85.50
17452;DHT22;8843;48.838;9.324;2023-08-21T08:20:56;25.80;86.00
17452;DHT22;8843;48.838;9.324;2023-08-21T08:23:23;25.90;87.40
17452;DHT22;8843;48.838;9.324;2023-08-21T08:25:50;25.90;86.30
17452;DHT22;8843;48.838;9.324;2023-08-21T08:28:17;25.90;86.00
17452;DHT22;8843;48.838;9.324;2023-08-21T08:30:45;25.90;86.10
17452;DHT22;8843;48.838;9.324;2023-08-21T08:33:14;26.00;86.10
17452;DHT22;8843;48.838;9.324;2023-08-21T08:35:41;25.90;86.30
17452;DHT22;8843;48.838;9.324;2023-08-21T08:38:08;25.90;85.10
17452;DHT22;8843;48.838;9.324;2023-08-21T08:40:40;26.00;86.20
17452;DHT22;8843;48.838;9.324;2023-08-21T08:43:09;26.00;86.30
17452;DHT22;8843;48.838;9.324;2023-08-21T08:45:36;26.10;86.20
17452;DHT22;8843;48.838;9.324;2023-08-21T08:48:04;26.10;84.90
17452;DHT22;8843;48.838;9.324;2023-08-21T08:50:34;26.10;85.60
17452;DHT22;8843;48.838;9.324;2023-08-21T08:53:01;26.20;87.00
17452;DHT22;8843;48.838;9.324;2023-08-21T08:55:28;26.20;86.10
17452;DHT22;8843;48.838;9.324;2023-08-21T08:57:56;26.30;87.30
17452;DHT22;8843;48.838;9.324;2023-08-21T09:00:23;26.20;86.60
17452;DHT22;8843;48.838;9.324;2023-08-21T09:02:50;26.20;86.10
17452;DHT22;8843;48.838;9.324;2023-08-21T09:05:18;26.30;86.20
17452;DHT22;8843;48.838;9.324;2023-08-21T09:08:02;26.30;86.40
17452;DHT22;8843;48.838;9.324;2023-08-21T09:10:29;26.40;86.80
17452;DHT22;8843;48.838;9.324;2023-08-21T09:12:57;26.30;86.20
17452;DHT22;8843;48.838;9.324;2023-08-21T09:15:28;26.50;87.50
17452;DHT22;8843;48.838;9.324;2023-08-21T09:17:55;26.70;87.60
17452;DHT22;8843;48.838;9.324;2023-08-21T09:20:22;26.70;87.20
17452;DHT22;8843;48.838;9.324;2023-08-21T09:22:54;26.80;88.00
17452;DHT22;8843;48.838;9.324;2023-08-21T09:25:22;26.90;86.90
17452;DHT22;8843;48.838;9.324;2023-08-21T09:27:51;26.90;87.00
17452;DHT22;8843;48.838;9.324;2023-08-21T09:30:19;27.20;87.40
17452;DHT22;8843;48.838;9.324;2023-08-21T09:32:53;27.30;86.50
17452;DHT22;8843;48.838;9.324;2023-08-21T09:35:20;27.50;86.70
17452;DHT22;8843;48.838;9.324;2023-08-21T09:37:47;27.60;85.70
17452;DHT22;8843;48.838;9.324;2023-08-21T09:40:16;27.70;84.70
17452;DHT22;8843;48.838;9.324;2023-08-21T09:42:43;27.80;86.20
17452;DHT22;8843;48.838;9.324;2023-08-21T09:45:10;28.00;84.70
17452;DHT22;8843;48.838;9.324;2023-08-21T09:47:38;28.20;84.30
17452;DHT22;8843;48.838;9.324;2023-08-21T09:50:06;28.20;83.30
17452;DHT22;8843;48.838;9.324;2023-08-21T09:52:35;28.20;83.50
17452;DHT22;8843;48.838;9.324;2023-08-21T09:55:04;28.30;83.60
17452;DHT22;8843;48.838;9.324;2023-08-21T09:57:34;28.10;82.40
17452;DHT22;8843;48.838;9.324;2023-08-21T10:00:02;28.30;82.70
17452;DHT22;8843;48.838;9.324;2023-08-21T10:02:39;28.50;82.90
17452;DHT22;8843;48.838;9.324;2023-08-21T10:05:07;28.70;81.90
17452;DHT22;8843;48.838;9.324;2023-08-21T10:07:34;29.00;81.30
17452;DHT22;8843;48.838;9.324;2023-08-21T10:10:01;29.10;80.60
17452;DHT22;8843;48.838;9.324;2023-08-21T10:12:28;29.20;79.90
17452;DHT22;8843;48.838;9.324;2023-08-21T10:14:56;29.50;79.70
17452;DHT22;8843;48.838;9.324;2023-08-21T10:17:24;29.60;78.40
17452;DHT22;8843;48.838;9.324;2023-08-21T10:19:51;29.80;78.70
17452;DHT22;8843;48.838;9.324;2023-08-21T10:22:39;29.90;77.30
17452;DHT22;8843;48.838;9.324;2023-08-21T10:25:15;30.00;75.70
17452;DHT22;8843;48.838;9.324;2023-08-21T10:27:43;30.20;75.30
17452;DHT22;8843;48.838;9.324;2023-08-21T10:30:16;30.40;74.60
17452;DHT22;8843;48.838;9.324;2023-08-21T10:32:47;30.50;74.10
17452;DHT22;8843;48.838;9.324;2023-08-21T10:35:15;30.50;74.40
17452;DHT22;8843;48.838;9.324;2023-08-21T10:38:10;30.60;74.30
17452;DHT22;8843;48.838;9.324;2023-08-21T10:40:38;30.80;74.10
17452;DHT22;8843;48.838;9.324;2023-08-21T10:46:04;31.20;73.50
17452;DHT22;8843;48.838;9.324;2023-08-21T10:48:30;31.40;73.30
17452;DHT22;8843;48.838;9.324;2023-08-21T10:50:58;31.50;71.70
17452;DHT22;8843;48.838;9.324;2023-08-21T10:53:27;31.60;71.10
17452;DHT22;8843;48.838;9.324;2023-08-21T10:55:55;31.80;72.00
17452;DHT22;8843;48.838;9.324;2023-08-21T10:58:22;32.00;70.60
17452;DHT22;8843;48.838;9.324;2023-08-21T11:00:56;31.90;69.30
17452;DHT22;8843;48.838;9.324;2023-08-21T11:03:25;32.00;69.40
17452;DHT22;8843;48.838;9.324;2023-08-21T11:06:02;32.00;69.20
17452;DHT22;8843;48.838;9.324;2023-08-21T11:08:31;32.20;68.80
17452;DHT22;8843;48.838;9.324;2023-08-21T11:10:58;32.50;69.20
17452;DHT22;8843;48.838;9.324;2023-08-21T11:13:25;32.60;68.40
17452;DHT22;8843;48.838;9.324;2023-08-21T11:15:59;32.70;67.50
17452;DHT22;8843;48.838;9.324;2023-08-21T11:18:35;32.90;66.40
17452;DHT22;8843;48.838;9.324;2023-08-21T11:21:04;32.90;65.80
17452;DHT22;8843;48.838;9.324;2023-08-21T11:23:32;33.10;66.00
17452;DHT22;8843;48.838;9.324;2023-08-21T11:26:00;32.90;64.60
17452;DHT22;8843;48.838;9.324;2023-08-21T11:28:28;32.90;66.80
17452;DHT22;8843;48.838;9.324;2023-08-21T11:30:56;33.10;64.50
17452;DHT22;8843;48.838;9.324;2023-08-21T11:33:23;33.10;64.70
17452;DHT22;8843;48.838;9.324;2023-08-21T11:35:51;33.30;63.60
17452;DHT22;8843;48.838;9.324;2023-08-21T11:38:20;33.30;63.50
17452;DHT22;8843;48.838;9.324;2023-08-21T11:40:54;33.30;63.20
17452;DHT22;8843;48.838;9.324;2023-08-21T11:43:21;33.20;63.90
17452;DHT22;8843;48.838;9.324;2023-08-21T11:45:48;33.30;63.90
17452;DHT22;8843;48.838;9.324;2023-08-21T11:48:15;33.30;63.90
17452;DHT22;8843;48.838;9.324;2023-08-21T11:50:48;33.50;64.70
17452;DHT22;8843;48.838;9.324;2023-08-21T11:53:31;33.60;63.90
17452;DHT22;8843;48.838;9.324;2023-08-21T11:55:58;33.50;63.80
17452;DHT22;8843;48.838;9.324;2023-08-21T11:58:26;33.60;64.10
17452;DHT22;8843;48.838;9.324;2023-08-21T12:00:53;33.60;64.00
17452;DHT22;8843;48.838;9.324;2023-08-21T12:03:20;33.60;63.00
17452;DHT22;8843;48.838;9.324;2023-08-21T12:05:47;33.80;62.80
17452;DHT22;8843;48.838;9.324;2023-08-21T12:08:16;33.80;62.50
17452;DHT22;8843;48.838;9.324;2023-08-21T12:10:43;33.70;63.20
17452;DHT22;8843;48.838;9.324;2023-08-21T12:13:12;33.80;62.80
17452;DHT22;8843;48.838;9.324;2023-08-21T12:15:39;33.80;63.50
17452;DHT22;8843;48.838;9.324;2023-08-21T12:18:06;34.00;62.40
17452;DHT22;8843;48.838;9.324;2023-08-21T12:20:32;34.10;61.90
17452;DHT22;8843;48.838;9.324;2023-08-21T12:22:59;34.10;61.40
17452;DHT22;8843;48.838;9.324;2023-08-21T12:25:28;33.80;61.30
17452;DHT22;8843;48.838;9.324;2023-08-21T12:27:55;34.00;61.60
17452;DHT22;8843;48.838;9.324;2023-08-21T12:30:22;34.10;60.90
17452;DHT22;8843;48.838;9.324;2023-08-21T12:32:49;34.10;60.70
17452;DHT22;8843;48.838;9.324;2023-08-21T12:35:16;34.20;60.90
17452;DHT22;8843;48.838;9.324;2023-08-21T12:37:43;34.00;59.80
17452;DHT22;8843;48.838;9.324;2023-08-21T12:40:10;34.00;59.90
17452;DHT22;8843;48.838;9.324;2023-08-21T12:42:38;34.00;60.70
17452;DHT22;8843;48.838;9.324;2023-08-21T12:45:06;33.90;60.10
17452;DHT22;8843;48.838;9.324;2023-08-21T12:47:33;33.90;61.00
17452;DHT22;8843;48.838;9.324;2023-08-21T12:50:00;34.00;60.70
17452;DHT22;8843;48.838;9.324;2023-08-21T12:52:29;33.90;60.60
17452;DHT22;8843;48.838;9.324;2023-08-21T12:54:55;34.00;60.40
17452;DHT22;8843;48.838;9.324;2023-08-21T12:57:22;34.10;61.00
17452;DHT22;8843;48.838;9.324;2023-08-21T12:59:50;34.10;59.50
17452;DHT22;8843;48.838;9.324;2023-08-21T13:02:17;34.10;59.40
17452;DHT22;8843;48.838;9.324;2023-08-21T13:04:45;34.00;59.70
17452;DHT22;8843;48.838;9.324;2023-08-21T13:07:11;34.20;59.80
17452;DHT22;8843;48.838;9.324;2023-08-21T13:09:38;34.30;59.40
17452;DHT22;8843;48.838;9.324;2023-08-21T13:12:05;33.90;59.30
17452;DHT22;8843;48.838;9.324;2023-08-21T13:14:33;34.10;59.50
17452;DHT22;8843;48.838;9.324;2023-08-21T13:17:02;34.10;58.90
17452;DHT22;8843;48.838;9.324;2023-08-21T13:19:29;34.20;59.00
17452;DHT22;8843;48.838;9.324;2023-08-21T13:21:55;34.30;58.50
17452;DHT22;8843;48.838;9.324;2023-08-21T13:24:22;34.40;58.70
17452;DHT22;8843;48.838;9.324;2023-08-21T13:26:49;34.40;57.90
17452;DHT22;8843;48.838;9.324;2023-08-21T13:29:16;34.50;59.10
17452;DHT22;8843;48.838;9.324;2023-08-21T13:31:43;34.50;58.90
17452;DHT22;8843;48.838;9.324;2023-08-21T13:34:11;34.30;57.80
17452;DHT22;8843;48.838;9.324;2023-08-21T13:36:38;34.20;58.20
17452;DHT22;8843;48.838;9.324;2023-08-21T13:39:05;34.10;58.30
17452;DHT22;8843;48.838;9.324;2023-08-21T13:41:32;33.90;58.30
17452;DHT22;8843;48.838;9.324;2023-08-21T13:43:59;33.90;59.30
17452;DHT22;8843;48.838;9.324;2023-08-21T13:46:26;33.90;59.20
17452;DHT22;8843;48.838;9.324;2023-08-21T13:48:53;33.90;58.50
17452;DHT22;8843;48.838;9.324;2023-08-21T13:51:21;33.70;58.10
17452;DHT22;8843;48.838;9.324;2023-08-21T13:53:48;33.80;59.00
17452;DHT22;8843;48.838;9.324;2023-08-21T13:56:15;33.80;58.90
17452;DHT22;8843;48.838;9.324;2023-08-21T13:58:42;33.90;59.10
17452;DHT22;8843;48.838;9.324;2023-08-21T14:01:08;33.80;58.20
17452;DHT22;8843;48.838;9.324;2023-08-21T14:03:35;33.60;58.20
17452;DHT22;8843;48.838;9.324;2023-08-21T14:06:03;33.60;59.20
17452;DHT22;8843;48.838;9.324;2023-08-21T14:08:31;33.70;58.90
17452;DHT22;8843;48.838;9.324;2023-08-21T14:10:58;33.70;59.50
17452;DHT22;8843;48.838;9.324;2023-08-21T14:13:25;33.60;58.70
17452;DHT22;8843;48.838;9.324;2023-08-21T14:15:52;33.50;58.80
17452;DHT22;8843;48.838;9.324;2023-08-21T14:18:19;33.30;58.60
17452;DHT22;8843;48.838;9.324;2023-08-21T14:20:46;33.20;59.00
17452;DHT22;8843;48.838;9.324;2023-08-21T14:23:13;33.10;59.10
17452;DHT22;8843;48.838;9.324;2023-08-21T14:25:41;33.00;58.90
17452;DHT22;8843;48.838;9.324;2023-08-21T14:28:08;32.90;59.40
17452;DHT22;8843;48.838;9.324;2023-08-21T14:30:35;32.60;60.10
17452;DHT22;8843;48.838;9.324;2023-08-21T14:33:02;32.70;60.40
17452;DHT22;8843;48.838;9.324;2023-08-21T14:35:29;32.80;60.90
17452;DHT22;8843;48.838;9.324;2023-08-21T14:37:56;32.90;61.30
17452;DHT22;8843;48.838;9.324;2023-08-21T14:40:23;32.80;61.10
17452;DHT22;8843;48.838;9.324;2023-08-21T14:42:51;32.80;60.70
17452;DHT22;8843;48.838;9.324;2023-08-21T14:45:18;32.80;60.90
17452;DHT22;8843;48.838;9.324;2023-08-21T14:47:45;32.90;61.60
17452;DHT22;8843;48.838;9.324;2023-08-21T14:50:12;33.00;60.90
17452;DHT22;8843;48.838;9.324;2023-08-21T14:52:39;32.90;60.90
17452;DHT22;8843;48.838;9.324;2023-08-21T14:55:06;32.90;60.00
17452;DHT22;8843;48.838;9.324;2023-08-21T14:57:33;32.90;60.10
17452;DHT22;8843;48.838;9.324;2023-08-21T15:00:02;33.00;60.80
17452;DHT22;8843;48.838;9.324;2023-08-21T15:02:29;32.80;60.00
17452;DHT22;8843;48.838;9.324;2023-08-21T15:04:56;32.80;60.10
17452;DHT22;8843;48.838;9.324;2023-08-21T15:07:23;32.90;61.10
17452;DHT22;8843;48.838;9.324;2023-08-21T15:09:50;32.90;60.30
17452;DHT22;8843;48.838;9.324;2023-08-21T15:12:17;32.80;60.00
17452;DHT22;8843;48.838;9.324;2023-08-21T15:14:44;32.80;60.40
17452;DHT22;8843;48.838;9.324;2023-08-21T15:17:13;32.80;60.50
17452;DHT22;8843;48.838;9.324;2023-08-21T15:19:41;32.80;60.70
17452;DHT22;8843;48.838;9.324;2023-08-21T15:22:08;32.60;60.40
17452;DHT22;8843;48.838;9.324;2023-08-21T15:24:34;32.60;60.40
17452;DHT22;8843;48.838;9.324;2023-08-21T15:27:01;32.40;60.20
17452;DHT22;8843;48.838;9.324;2023-08-21T15:29:28;32.60;60.70
17452;DHT22;8843;48.838;9.324;2023-08-21T15:31:55;32.20;61.40
17452;DHT22;8843;48.838;9.324;2023-08-21T15:34:23;32.40;61.20
17452;DHT22;8843;48.838;9.324;2023-08-21T15:36:50;32.40;60.60
17452;DHT22;8843;48.838;9.324;2023-08-21T15:39:17;32.40;60.70
17452;DHT22;8843;48.838;9.324;2023-08-21T15:41:44;32.30;60.50
17452;DHT22;8843;48.838;9.324;2023-08-21T15:44:11;32.40;60.70
17452;DHT22;8843;48.838;9.324;2023-08-21T15:46:38;32.40;61.20
17452;DHT22;8843;48.838;9.324;2023-08-21T15:49:09;32.30;60.60
17452;DHT22;8843;48.838;9.324;2023-08-21T15:51:37;32.10;60.50